Time;durP1;ratioP1;P1;durP2;ratioP2;P2;SDS_P1;SDS_P2;PMS_P1;PMS_P2;Temp;Humidity;BMP_temperature;BMP_pressure;BME280_temperature;BME280_humidity;BME280_pressure;Samples;Min_cycle;Max_cycle;Signal;HPM_P1;HPM_P2
2022/01/13 00:00:19;;;;;;;98.68;25.35;;;6.60;99.90;;;;;;5009607;28;20049;-79
2022/01/13 00:02:46;;;;;;;89.07;24.65;;;6.60;99.90;;;;;;5020669;28;20117;-79
2022/01/13 00:05:11;;;;;;;115.45;27.25;;;6.50;99.90;;;;;;5019086;28;20148;-79
2022/01/13 00:07:37;;;;;;;85.68;25.05;;;6.50;99.90;;;;;;5020885;28;20111;-79
2022/01/13 00:10:05;;;;;;;102.50;26.50;;;6.50;99.90;;;;;;5033789;28;20059;-79
2022/01/13 00:12:36;;;;;;;105.68;26.58;;;6.50;99.90;;;;;;5036855;28;20132;-79
2022/01/13 00:17:45;;;;;;;90.97;25.27;;;6.40;99.90;;;;;;5019028;28;20052;-79
2022/01/13 00:25:32;;;;;;;91.07;23.30;;;6.40;99.90;;;;;;5039522;28;20041;-79
2022/01/13 00:28:00;;;;;;;81.00;20.20;;;6.30;99.90;;;;;;5040124;28;20412;-79
2022/01/13 00:30:26;;;;;;;89.97;22.25;;;6.30;99.90;;;;;;4998996;28;20053;-79
2022/01/13 00:32:52;;;;;;;68.13;20.65;;;6.30;99.90;;;;;;5022680;28;20094;-79
2022/01/13 00:35:17;;;;;;;74.05;19.98;;;6.30;99.90;;;;;;5022365;28;20048;-79
2022/01/13 00:37:43;;;;;;;71.57;19.63;;;6.20;99.90;;;;;;5005363;28;20045;-79
2022/01/13 00:40:09;;;;;;;57.88;18.17;;;6.20;99.90;;;;;;5002555;28;20276;-79
2022/01/13 00:42:35;;;;;;;56.17;18.92;;;6.20;99.90;;;;;;5018976;28;20041;-79
2022/01/13 00:45:03;;;;;;;67.03;18.73;;;6.10;99.90;;;;;;5024160;28;20567;-79
2022/01/13 00:47:30;;;;;;;61.85;18.95;;;6.10;99.90;;;;;;5020713;28;20041;-79
2022/01/13 00:49:57;;;;;;;58.30;18.67;;;6.10;99.90;;;;;;5037566;28;20050;-78
2022/01/13 00:52:25;;;;;;;62.25;16.88;;;6.10;99.90;;;;;;5019271;28;20289;-79
2022/01/13 00:54:51;;;;;;;59.60;18.35;;;6.10;99.90;;;;;;5021068;28;20036;-79
2022/01/13 00:57:17;;;;;;;50.55;17.23;;;6.10;99.90;;;;;;5018302;28;20084;-79
2022/01/13 00:59:42;;;;;;;67.78;19.35;;;6.10;99.90;;;;;;5042509;28;20068;-79
2022/01/13 01:02:08;;;;;;;58.97;18.63;;;6.10;99.90;;;;;;5035213;28;20109;-79
2022/01/13 01:04:34;;;;;;;67.40;20.20;;;6.10;99.90;;;;;;5023537;28;20396;-79
2022/01/13 01:07:02;;;;;;;66.78;20.25;;;6.10;99.90;;;;;;5016634;28;20041;-79
2022/01/13 01:09:47;;;;;;;64.22;20.50;;;6.10;99.90;;;;;;5024513;28;20101;-79
2022/01/13 01:12:14;;;;;;;64.35;20.05;;;6.20;99.90;;;;;;5020051;28;20044;-79
2022/01/13 01:14:45;;;;;;;66.50;20.30;;;6.10;99.90;;;;;;5041286;28;20055;-79
2022/01/13 01:17:15;;;;;;;60.75;20.67;;;6.20;99.90;;;;;;5034146;28;20033;-79
2022/01/13 01:19:44;;;;;;;71.65;21.92;;;6.10;99.90;;;;;;5037950;28;20065;-78
2022/01/13 01:22:37;;;;;;;68.88;22.17;;;6.10;99.90;;;;;;5015552;28;20061;-79
2022/01/13 01:25:32;;;;;;;66.95;21.83;;;6.20;99.90;;;;;;5018826;28;20097;-79
2022/01/13 01:27:55;;;;;;;65.00;22.02;;;6.10;99.90;;;;;;5020874;28;20049;-79
2022/01/13 01:32:52;;;;;;;61.47;20.90;;;5.90;99.90;;;;;;5033036;28;20053;-79
2022/01/13 01:35:19;;;;;;;68.55;21.63;;;6.00;99.90;;;;;;4994546;28;20049;-79
2022/01/13 01:37:45;;;;;;;67.13;20.80;;;5.90;99.90;;;;;;5016931;28;20080;-79
2022/01/13 01:40:13;;;;;;;64.53;19.50;;;5.80;99.90;;;;;;5020789;28;20060;-79
2022/01/13 01:42:40;;;;;;;71.68;20.30;;;5.70;99.90;;;;;;5034241;28;20044;-79
2022/01/13 01:45:10;;;;;;;70.22;20.13;;;5.70;99.90;;;;;;5023367;28;20416;-79
2022/01/13 01:47:36;;;;;;;66.28;19.45;;;5.70;99.90;;;;;;5003526;28;20033;-78
2022/01/13 01:50:12;;;;;;;61.65;18.30;;;5.60;99.90;;;;;;5041106;28;20037;-79
2022/01/13 01:52:41;;;;;;;73.65;18.73;;;5.60;99.90;;;;;;5024423;28;20073;-79
2022/01/13 01:55:08;;;;;;;72.95;19.58;;;5.60;99.90;;;;;;5023804;28;20048;-78
2022/01/13 01:57:33;;;;;;;78.20;20.55;;;5.60;99.90;;;;;;5022889;28;20482;-79
2022/01/13 01:59:59;;;;;;;67.97;19.60;;;5.60;99.90;;;;;;5027108;28;20087;-79
2022/01/13 02:02:29;;;;;;;70.03;19.52;;;5.60;99.90;;;;;;5020848;28;20136;-79
2022/01/13 02:04:55;;;;;;;65.43;20.08;;;5.60;99.90;;;;;;5024838;28;20044;-79
2022/01/13 02:07:20;;;;;;;71.95;20.27;;;5.60;99.90;;;;;;5021637;28;20051;-79
2022/01/13 02:09:51;;;;;;;69.70;19.27;;;5.70;99.90;;;;;;5025153;28;20037;-79
2022/01/13 02:12:29;;;;;;;66.80;20.15;;;5.70;99.90;;;;;;5032830;28;20075;-79
2022/01/13 02:17:40;;;;;;;60.00;19.45;;;5.70;99.90;;;;;;5021812;28;20033;-79
2022/01/13 02:20:10;;;;;;;72.07;20.67;;;5.70;99.90;;;;;;5020765;28;20448;-79
2022/01/13 02:22:36;;;;;;;77.18;22.08;;;5.70;99.90;;;;;;5003681;28;20403;-79
2022/01/13 02:25:04;;;;;;;62.08;19.20;;;5.80;99.90;;;;;;5023427;28;20086;-79
2022/01/13 02:27:29;;;;;;;82.63;20.50;;;5.80;99.90;;;;;;5020172;28;20111;-79
2022/01/13 02:29:55;;;;;;;75.65;21.95;;;5.70;99.90;;;;;;5036594;28;20045;-78
2022/01/13 02:32:21;;;;;;;71.15;21.27;;;5.80;99.90;;;;;;5005431;28;20582;-79
2022/01/13 02:34:48;;;;;;;69.18;21.40;;;5.80;99.90;;;;;;5004145;28;20049;-79
2022/01/13 02:37:14;;;;;;;63.08;20.73;;;5.80;99.90;;;;;;5000554;28;20481;-79
2022/01/13 02:39:41;;;;;;;70.03;21.60;;;5.80;99.90;;;;;;5044194;28;20045;-79
2022/01/13 02:42:12;;;;;;;67.65;21.10;;;5.80;99.90;;;;;;5027175;28;20037;-79
2022/01/13 02:44:49;;;;;;;67.68;20.10;;;5.90;99.90;;;;;;5024131;28;20045;-79
2022/01/13 02:47:34;;;;;;;63.55;21.40;;;5.80;99.90;;;;;;5019001;28;20096;-79
2022/01/13 02:50:00;;;;;;;71.35;20.33;;;5.90;99.90;;;;;;5022727;28;20409;-78
2022/01/13 02:52:26;;;;;;;59.47;19.73;;;5.80;99.90;;;;;;5034747;28;20045;-79
2022/01/13 02:54:52;;;;;;;69.07;22.48;;;5.90;99.90;;;;;;4998036;28;20282;-79
2022/01/13 02:57:18;;;;;;;71.68;21.48;;;5.90;99.90;;;;;;4989844;28;20041;-79
2022/01/13 02:59:43;;;;;;;71.45;21.10;;;5.80;99.90;;;;;;5021214;28;20029;-79
2022/01/13 03:02:09;;;;;;;56.70;20.60;;;5.90;99.90;;;;;;5029284;28;21509;-79
2022/01/13 03:04:35;;;;;;;72.95;21.23;;;5.90;99.90;;;;;;5022491;28;20048;-79
2022/01/13 03:07:01;;;;;;;71.65;21.70;;;5.90;99.90;;;;;;5024764;28;20292;-79
2022/01/13 03:09:26;;;;;;;66.38;20.90;;;5.90;99.90;;;;;;5004548;28;20029;-79
2022/01/13 03:11:52;;;;;;;71.53;20.27;;;5.90;99.90;;;;;;5018945;28;20777;-79
2022/01/13 03:14:18;;;;;;;66.68;19.70;;;5.90;99.90;;;;;;5022783;28;20444;-79
2022/01/13 03:16:45;;;;;;;69.82;20.77;;;5.90;99.90;;;;;;5004444;28;20041;-79
2022/01/13 03:19:11;;;;;;;79.05;21.05;;;5.90;99.90;;;;;;5021618;28;20063;-79
2022/01/13 03:21:38;;;;;;;72.10;22.70;;;5.80;99.90;;;;;;5022759;28;20401;-79
2022/01/13 03:24:08;;;;;;;76.57;20.77;;;5.80;99.90;;;;;;5022517;28;20466;-79
2022/01/13 03:26:34;;;;;;;66.68;20.88;;;5.80;99.90;;;;;;5019964;28;20041;-79
2022/01/13 03:31:38;;;;;;;81.25;21.63;;;5.80;99.90;;;;;;5015825;28;20060;-79
2022/01/13 03:34:04;;;;;;;76.63;21.08;;;5.80;99.90;;;;;;5022832;28;20049;-79
2022/01/13 03:36:29;;;;;;;84.82;22.73;;;5.80;99.90;;;;;;5020692;28;20093;-79
2022/01/13 03:38:55;;;;;;;99.18;23.02;;;5.80;99.90;;;;;;5038568;28;20048;-78
2022/01/13 03:41:22;;;;;;;88.32;22.38;;;5.80;99.90;;;;;;4999196;28;20049;-79
2022/01/13 03:43:54;;;;;;;100.63;24.30;;;5.80;99.90;;;;;;5017237;28;20287;-79
2022/01/13 03:46:20;;;;;;;119.63;22.95;;;5.80;99.90;;;;;;5004384;28;20064;-79
2022/01/13 03:48:46;;;;;;;127.22;24.27;;;5.80;99.90;;;;;;5003129;28;20069;-79
2022/01/13 03:51:12;;;;;;;115.10;23.38;;;5.80;99.90;;;;;;5021657;28;20264;-79
2022/01/13 03:53:38;;;;;;;105.53;22.83;;;5.80;99.90;;;;;;5021163;28;20041;-79
2022/01/13 03:56:25;;;;;;;112.55;23.60;;;5.90;99.90;;;;;;5023286;28;20059;-78
2022/01/13 03:59:30;;;;;;;118.70;23.50;;;5.80;99.90;;;;;;5020013;28;20053;-79
2022/01/13 04:02:13;;;;;;;90.87;21.20;;;5.90;99.90;;;;;;4990954;28;20580;-79
2022/01/13 04:04:45;;;;;;;104.28;22.67;;;5.90;99.90;;;;;;5015334;28;20512;-79
2022/01/13 04:07:19;;;;;;;121.03;23.77;;;5.90;99.90;;;;;;5024474;28;20405;-79
2022/01/13 04:09:45;;;;;;;136.73;26.17;;;6.00;99.90;;;;;;5005986;28;20041;-79
2022/01/13 04:12:13;;;;;;;106.57;23.13;;;6.00;99.90;;;;;;5023420;28;20048;-79
2022/01/13 04:14:46;;;;;;;101.88;23.70;;;6.00;99.90;;;;;;5021508;28;20047;-79
2022/01/13 04:17:15;;;;;;;107.60;22.95;;;6.00;99.90;;;;;;5022955;28;20400;-79
2022/01/13 04:19:41;;;;;;;103.93;22.70;;;6.00;99.90;;;;;;5009422;28;20049;-79
2022/01/13 04:22:09;;;;;;;125.70;24.02;;;6.00;99.90;;;;;;5007568;28;20705;-79
2022/01/13 04:24:39;;;;;;;84.28;22.42;;;6.00;99.90;;;;;;5025238;28;20554;-79
2022/01/13 04:27:05;;;;;;;108.63;23.92;;;6.00;99.90;;;;;;5008903;28;20036;-79
2022/01/13 04:29:37;;;;;;;117.65;24.27;;;6.00;99.90;;;;;;5007772;28;20045;-79
2022/01/13 04:32:04;;;;;;;113.53;23.98;;;6.00;99.90;;;;;;5003436;28;20518;-79
2022/01/13 04:34:29;;;;;;;131.18;24.73;;;6.00;99.90;;;;;;5009510;28;20370;-79
2022/01/13 04:36:56;;;;;;;105.45;22.65;;;6.00;99.90;;;;;;5023125;28;20114;-79
2022/01/13 04:39:22;;;;;;;125.95;24.42;;;5.90;99.90;;;;;;5008444;28;20053;-79
2022/01/13 04:41:48;;;;;;;113.50;24.58;;;5.90;99.90;;;;;;5023065;28;20068;-79
2022/01/13 04:44:19;;;;;;;109.65;23.15;;;5.80;99.90;;;;;;5004039;28;20045;-79
2022/01/13 04:46:50;;;;;;;105.57;23.13;;;5.80;99.90;;;;;;5021829;28;20116;-79
2022/01/13 04:49:18;;;;;;;108.47;22.27;;;5.80;99.90;;;;;;5040512;28;20180;-79
2022/01/13 04:51:48;;;;;;;115.68;23.55;;;5.80;99.90;;;;;;5006389;28;20049;-79
2022/01/13 04:54:14;;;;;;;119.57;22.90;;;5.80;99.90;;;;;;5007862;28;20061;-79
2022/01/13 04:56:44;;;;;;;163.93;26.00;;;5.80;99.90;;;;;;5006653;28;20496;-79
2022/01/13 04:59:10;;;;;;;162.27;25.33;;;5.80;99.90;;;;;;5004941;28;20053;-79
2022/01/13 05:01:37;;;;;;;138.02;23.83;;;5.80;99.90;;;;;;5024060;28;20052;-79
2022/01/13 05:04:05;;;;;;;144.85;23.92;;;5.80;99.90;;;;;;5005703;28;20133;-78
2022/01/13 05:06:31;;;;;;;125.28;23.27;;;5.80;99.90;;;;;;5002536;28;20488;-79
2022/01/13 05:08:57;;;;;;;125.90;22.13;;;5.80;99.90;;;;;;5009159;28;20045;-79
2022/01/13 05:11:23;;;;;;;128.02;24.73;;;5.80;99.90;;;;;;5007723;28;20468;-79
2022/01/13 05:13:49;;;;;;;134.60;23.65;;;5.90;99.90;;;;;;5007798;28;20104;-79
2022/01/13 05:16:35;;;;;;;137.05;25.25;;;5.90;99.90;;;;;;5023053;28;20238;-78
2022/01/13 05:22:05;;;;;;;141.70;25.00;;;5.90;99.90;;;;;;5041206;28;20128;-79
2022/01/13 05:24:26;;;;;;;115.70;22.20;;;5.90;99.90;;;;;;5015741;28;20078;-79
2022/01/13 05:26:52;;;;;;;143.15;24.30;;;5.90;99.90;;;;;;5043153;28;20389;-79
2022/01/13 05:29:20;;;;;;;115.85;22.35;;;5.90;99.90;;;;;;5023328;28;20067;-79
2022/01/13 05:31:48;;;;;;;142.32;24.38;;;5.90;99.90;;;;;;5008060;28;20132;-79
2022/01/13 05:34:15;;;;;;;132.00;25.42;;;6.00;99.90;;;;;;5024433;28;20152;-79
2022/01/13 05:36:40;;;;;;;128.25;23.45;;;6.00;99.90;;;;;;5026521;28;20049;-79
2022/01/13 05:39:06;;;;;;;183.35;29.98;;;6.10;99.90;;;;;;5014133;28;20480;-79
2022/01/13 05:41:33;;;;;;;212.05;31.65;;;6.00;99.90;;;;;;5030945;28;20075;-79
2022/01/13 05:43:59;;;;;;;133.23;24.55;;;6.00;99.90;;;;;;5009615;28;20083;-79
2022/01/13 05:46:25;;;;;;;156.35;26.25;;;6.10;99.90;;;;;;5012408;28;20455;-79
2022/01/13 05:48:51;;;;;;;171.45;26.65;;;6.10;99.90;;;;;;5028801;28;20036;-79
2022/01/13 05:51:16;;;;;;;189.23;27.10;;;6.10;99.90;;;;;;5009465;28;20124;-79
2022/01/13 05:53:42;;;;;;;142.32;24.17;;;6.10;99.90;;;;;;5024908;28;20568;-79
2022/01/13 05:56:09;;;;;;;176.02;26.10;;;6.20;99.90;;;;;;5020743;28;20052;-79
2022/01/13 05:58:35;;;;;;;155.75;24.75;;;6.10;99.90;;;;;;5017502;28;20053;-79
2022/01/13 06:01:00;;;;;;;187.82;28.13;;;6.10;99.90;;;;;;5026867;28;20754;-79
2022/01/13 06:03:26;;;;;;;175.70;27.98;;;6.20;99.90;;;;;;5026009;28;20076;-79
2022/01/13 06:05:52;;;;;;;173.02;26.17;;;6.10;99.90;;;;;;4997984;28;20524;-79
2022/01/13 06:08:17;;;;;;;190.18;28.45;;;6.20;99.90;;;;;;5006540;28;20040;-79
2022/01/13 06:10:46;;;;;;;211.82;28.80;;;6.20;99.90;;;;;;5026756;28;20057;-79
2022/01/13 06:13:11;;;;;;;173.40;26.35;;;6.20;99.90;;;;;;5032661;28;20056;-79
2022/01/13 06:15:37;;;;;;;172.25;28.48;;;6.20;99.90;;;;;;5011298;28;20046;-79
2022/01/13 06:18:09;;;;;;;234.05;31.52;;;6.20;99.90;;;;;;5010966;28;20038;-79
2022/01/13 06:20:34;;;;;;;158.75;27.45;;;6.30;99.90;;;;;;5026487;28;20395;-79
2022/01/13 06:23:02;;;;;;;167.60;29.00;;;6.30;99.90;;;;;;5043407;28;20063;-79
2022/01/13 06:25:28;;;;;;;193.77;28.92;;;6.30;99.90;;;;;;5040113;28;20114;-79
2022/01/13 06:27:53;;;;;;;180.10;28.80;;;6.40;99.90;;;;;;5017231;28;20069;-79
2022/01/13 06:30:19;;;;;;;173.85;29.20;;;6.40;99.90;;;;;;5043909;28;20072;-79
2022/01/13 06:32:46;;;;;;;173.00;27.95;;;6.40;99.90;;;;;;4999901;28;20143;-79
2022/01/13 06:35:13;;;;;;;191.77;29.60;;;6.40;99.90;;;;;;5009740;28;20071;-78
2022/01/13 06:37:41;;;;;;;144.65;25.42;;;6.40;99.90;;;;;;5043397;28;20136;-79
2022/01/13 06:40:08;;;;;;;182.02;28.27;;;6.50;99.90;;;;;;5020454;28;20061;-79
2022/01/13 06:42:33;;;;;;;180.50;28.83;;;6.50;99.90;;;;;;5045487;28;20056;-79
2022/01/13 06:44:59;;;;;;;164.85;27.10;;;6.50;99.90;;;;;;5020344;28;20056;-79
2022/01/13 06:47:25;;;;;;;148.98;28.63;;;6.50;99.90;;;;;;5026386;28;20040;-79
2022/01/13 06:49:51;;;;;;;170.52;29.38;;;6.50;99.90;;;;;;5011886;28;20044;-79
2022/01/13 06:52:17;;;;;;;169.25;29.20;;;6.50;99.90;;;;;;5025662;28;20373;-79
2022/01/13 06:54:44;;;;;;;179.45;28.88;;;6.60;99.90;;;;;;5019384;28;20404;-79
2022/01/13 06:57:09;;;;;;;175.98;29.42;;;6.60;99.90;;;;;;5016143;28;20052;-79
2022/01/13 06:59:35;;;;;;;183.75;29.15;;;6.60;99.90;;;;;;5004168;28;20052;-79
2022/01/13 07:02:01;;;;;;;171.48;28.83;;;6.60;99.90;;;;;;5010493;28;20455;-79
2022/01/13 07:04:28;;;;;;;171.68;29.42;;;6.70;99.90;;;;;;5000133;28;20494;-79
2022/01/13 07:06:54;;;;;;;161.73;30.67;;;6.60;99.90;;;;;;5006173;28;20052;-79
2022/01/13 07:09:21;;;;;;;190.30;28.77;;;6.60;99.90;;;;;;5043324;28;20040;-79
2022/01/13 07:11:47;;;;;;;149.27;28.73;;;6.60;99.90;;;;;;5006417;28;20132;-79
2022/01/13 07:14:14;;;;;;;152.02;27.05;;;6.70;99.90;;;;;;5026688;28;20552;-79
2022/01/13 07:16:41;;;;;;;166.80;28.73;;;6.60;99.90;;;;;;5043566;28;20059;-79
2022/01/13 07:19:10;;;;;;;189.68;29.88;;;6.60;99.90;;;;;;5042940;28;20538;-79
2022/01/13 07:21:36;;;;;;;182.63;30.00;;;6.60;99.90;;;;;;5017150;28;20080;-79
2022/01/13 07:24:02;;;;;;;175.07;29.55;;;6.60;99.90;;;;;;5048022;28;20041;-79
2022/01/13 07:26:28;;;;;;;187.60;31.38;;;6.60;99.90;;;;;;5027393;28;20067;-79
2022/01/13 07:28:53;;;;;;;118.15;24.73;;;6.70;99.90;;;;;;5007850;28;20051;-79
2022/01/13 07:31:19;;;;;;;148.20;28.02;;;6.60;99.90;;;;;;5009642;28;20074;-79
2022/01/13 07:33:45;;;;;;;151.95;27.27;;;6.60;99.90;;;;;;5016949;28;20072;-79
2022/01/13 07:36:11;;;;;;;136.68;25.33;;;6.60;99.90;;;;;;5023121;28;20171;-79
2022/01/13 07:38:36;;;;;;;146.48;26.63;;;6.60;99.90;;;;;;5016836;28;20458;-79
2022/01/13 07:41:03;;;;;;;180.80;28.73;;;6.60;99.90;;;;;;5032300;28;20051;-79
2022/01/13 07:43:30;;;;;;;182.70;30.35;;;6.60;99.90;;;;;;5012688;28;20469;-79
2022/01/13 07:45:56;;;;;;;171.63;27.80;;;6.60;99.90;;;;;;5023994;28;20062;-79
2022/01/13 07:48:22;;;;;;;133.88;24.75;;;6.50;99.90;;;;;;5013710;28;20045;-79
2022/01/13 07:50:48;;;;;;;114.85;23.23;;;6.50;99.90;;;;;;5011354;28;20171;-79
2022/01/13 07:53:14;;;;;;;133.57;24.17;;;6.40;99.90;;;;;;5027396;28;20095;-79
2022/01/13 07:55:40;;;;;;;133.48;25.50;;;6.40;99.90;;;;;;5007844;28;20123;-79
2022/01/13 07:58:06;;;;;;;126.38;24.00;;;6.30;99.90;;;;;;5026658;28;20110;-79
2022/01/13 08:00:32;;;;;;;113.10;24.20;;;6.30;99.90;;;;;;5006037;28;20072;-79
2022/01/13 08:02:58;;;;;;;134.25;23.83;;;6.30;99.90;;;;;;5042458;28;20125;-79
2022/01/13 08:05:23;;;;;;;149.00;26.25;;;6.30;99.90;;;;;;5008082;28;20045;-78
2022/01/13 08:07:49;;;;;;;107.50;23.48;;;6.30;99.90;;;;;;5009146;28;20776;-79
2022/01/13 08:10:15;;;;;;;141.43;24.73;;;6.30;99.90;;;;;;5018906;28;20040;-79
2022/01/13 08:12:41;;;;;;;141.75;25.92;;;6.30;99.90;;;;;;5007564;28;20384;-79
2022/01/13 08:15:12;;;;;;;122.78;24.30;;;6.30;99.90;;;;;;5025715;28;20120;-79
2022/01/13 08:20:27;;;;;;;116.32;22.27;;;6.30;99.90;;;;;;5036879;28;20453;-79
2022/01/13 08:22:52;;;;;;;123.68;24.10;;;6.20;99.90;;;;;;5023518;28;20068;-79
2022/01/13 08:25:18;;;;;;;122.45;25.70;;;6.30;99.90;;;;;;5004722;28;20401;-79
2022/01/13 08:27:44;;;;;;;118.90;23.92;;;6.30;99.90;;;;;;5025148;28;20088;-79
2022/01/13 08:30:11;;;;;;;126.20;25.65;;;6.30;99.90;;;;;;5009046;28;20491;-79
2022/01/13 08:32:36;;;;;;;117.72;25.75;;;6.30;99.90;;;;;;5028466;28;20436;-79
2022/01/13 08:35:03;;;;;;;121.88;26.27;;;6.40;99.90;;;;;;5026064;28;20045;-79
2022/01/13 08:37:30;;;;;;;118.35;24.48;;;6.40;99.90;;;;;;5023895;28;20471;-79
2022/01/13 08:39:56;;;;;;;151.70;28.13;;;6.40;99.90;;;;;;5014639;28;20057;-79
2022/01/13 08:42:22;;;;;;;106.47;24.15;;;6.40;99.90;;;;;;5036692;28;20055;-79
2022/01/13 08:44:51;;;;;;;124.38;25.90;;;6.40;99.90;;;;;;5008454;28;20037;-79
2022/01/13 08:47:17;;;;;;;130.40;25.73;;;6.40;99.90;;;;;;5005804;28;20915;-79
2022/01/13 08:49:43;;;;;;;122.07;25.25;;;6.50;99.90;;;;;;5009832;28;20170;-79
2022/01/13 08:52:09;;;;;;;143.55;26.58;;;6.50;99.90;;;;;;5003838;28;20517;-79
2022/01/13 08:54:34;;;;;;;127.10;27.35;;;6.50;99.90;;;;;;5041709;28;20119;-79
2022/01/13 08:57:00;;;;;;;125.20;26.58;;;6.50;99.90;;;;;;5048590;28;20106;-79
2022/01/13 08:59:27;;;;;;;136.15;27.23;;;6.50;99.90;;;;;;5021272;28;20080;-79
2022/01/13 09:01:54;;;;;;;133.82;25.63;;;6.50;99.90;;;;;;5024825;28;20090;-79
2022/01/13 09:04:20;;;;;;;119.47;26.23;;;6.60;99.90;;;;;;5030893;28;20033;-79
2022/01/13 09:06:47;;;;;;;134.02;27.70;;;6.60;99.90;;;;;;5031437;28;20186;-79
2022/01/13 09:09:15;;;;;;;126.90;26.92;;;6.70;99.90;;;;;;5025326;28;20152;-79
2022/01/13 09:11:43;;;;;;;147.63;29.05;;;6.60;99.90;;;;;;5043417;28;20060;-79
2022/01/13 09:14:09;;;;;;;116.00;28.45;;;6.70;99.90;;;;;;5030759;28;20054;-79
2022/01/13 09:16:42;;;;;;;124.13;26.10;;;6.70;99.90;;;;;;5027122;28;20053;-79
2022/01/13 09:19:09;;;;;;;114.13;25.90;;;6.70;99.90;;;;;;5024743;28;20488;-79
2022/01/13 09:21:37;;;;;;;129.10;28.40;;;6.80;99.90;;;;;;5030213;28;20121;-79
2022/01/13 09:24:07;;;;;;;129.20;26.83;;;6.80;99.90;;;;;;5027031;28;20668;-79
2022/01/13 09:26:33;;;;;;;131.18;28.52;;;6.80;99.90;;;;;;5024139;28;20045;-79
2022/01/13 09:28:59;;;;;;;123.80;28.95;;;6.80;99.90;;;;;;5026827;28;20037;-79
2022/01/13 09:31:26;;;;;;;106.20;25.65;;;6.80;99.90;;;;;;5014944;28;20310;-79
2022/01/13 09:33:52;;;;;;;127.93;31.63;;;6.80;99.90;;;;;;5026835;28;20095;-79
2022/01/13 09:36:18;;;;;;;118.38;27.75;;;6.80;99.90;;;;;;5013150;28;20064;-79
2022/01/13 09:38:44;;;;;;;113.38;27.67;;;6.90;99.90;;;;;;5015050;28;20056;-79
2022/01/13 09:41:10;;;;;;;117.72;27.35;;;6.90;99.90;;;;;;5006876;28;20149;-79
2022/01/13 09:43:36;;;;;;;140.15;31.67;;;6.90;99.90;;;;;;5012750;28;20040;-79
2022/01/13 09:46:02;;;;;;;106.05;26.40;;;6.90;99.90;;;;;;5012121;28;20132;-79
2022/01/13 09:48:30;;;;;;;118.35;27.45;;;7.00;99.90;;;;;;5011845;28;20139;-79
2022/01/13 09:50:56;;;;;;;120.28;27.58;;;7.00;99.90;;;;;;5047860;28;20061;-79
2022/01/13 09:53:22;;;;;;;138.75;31.35;;;7.00;99.90;;;;;;5010893;28;20153;-79
2022/01/13 09:55:48;;;;;;;112.32;27.83;;;7.10;99.90;;;;;;5044594;28;20052;-79
2022/01/13 09:58:13;;;;;;;133.88;30.35;;;7.00;99.90;;;;;;5028484;28;20045;-79
2022/01/13 10:00:41;;;;;;;132.68;29.90;;;7.10;99.90;;;;;;5032740;28;20044;-79
2022/01/13 10:03:13;;;;;;;115.00;28.75;;;7.10;99.90;;;;;;5026048;28;20445;-79
2022/01/13 10:05:48;;;;;;;127.53;30.02;;;7.00;99.90;;;;;;5046207;28;20045;-79
2022/01/13 10:08:14;;;;;;;109.32;27.30;;;7.10;99.90;;;;;;5040509;28;20033;-79
2022/01/13 10:10:39;;;;;;;106.57;28.98;;;7.00;99.90;;;;;;5025422;28;20898;-79
2022/01/13 10:13:10;;;;;;;112.93;28.05;;;7.20;99.90;;;;;;5026022;28;20056;-79
2022/01/13 10:18:39;;;;;;;;;;;7.10;99.90;;;;;;5038454;28;20187;-79
2022/01/13 10:21:14;;;;;;;117.05;27.00;;;7.20;99.90;;;;;;5023259;28;19921;-79
2022/01/13 10:23:58;;;;;;;;;;;7.20;99.90;;;;;;5020967;28;20071;-79
2022/01/13 10:26:24;;;;;;;83.80;23.90;;;7.20;99.90;;;;;;5042812;28;20395;-80
2022/01/13 10:28:53;;;;;;;122.03;29.25;;;7.20;99.90;;;;;;5008329;28;20080;-79
2022/01/13 10:31:18;;;;;;;132.68;29.83;;;7.20;99.90;;;;;;5012504;28;20148;-79
2022/01/13 10:33:44;;;;;;;104.65;27.20;;;7.30;99.90;;;;;;5013924;28;20133;-79
2022/01/13 10:36:12;;;;;;;88.05;25.55;;;7.20;99.90;;;;;;5009762;28;20044;-79
2022/01/13 10:39:07;;;;;;;104.78;28.20;;;7.20;99.90;;;;;;5026510;28;20044;-79
2022/01/13 10:41:48;;;;;;;97.32;27.73;;;7.20;99.90;;;;;;5006469;28;20346;-79
2022/01/13 10:44:22;;;;;;;104.40;28.45;;;7.30;99.90;;;;;;5040501;28;20120;-79
2022/01/13 10:47:17;;;;;;;108.50;29.53;;;7.30;99.90;;;;;;5019114;28;20519;-79
2022/01/13 10:49:42;;;;;;;100.20;28.10;;;7.20;99.90;;;;;;5002408;28;20499;-79
2022/01/13 10:52:26;;;;;;;97.57;27.05;;;7.20;99.90;;;;;;5008493;28;20052;-79
2022/01/13 10:55:06;;;;;;;102.15;29.48;;;7.20;99.90;;;;;;5025343;28;20053;-79
2022/01/13 10:57:33;;;;;;;106.07;29.58;;;7.30;99.90;;;;;;5008145;28;20049;-79
2022/01/13 10:59:59;;;;;;;88.60;25.20;;;7.20;99.90;;;;;;5020687;28;20049;-79
2022/01/13 11:02:26;;;;;;;97.32;28.88;;;7.30;99.90;;;;;;5039432;28;20380;-79
2022/01/13 11:04:53;;;;;;;115.93;31.90;;;7.30;99.90;;;;;;5008362;28;20053;-79
2022/01/13 11:07:24;;;;;;;93.30;28.08;;;7.30;99.90;;;;;;5025548;28;20056;-79
2022/01/13 11:10:00;;;;;;;97.00;27.15;;;7.30;99.90;;;;;;5017290;28;20084;-79
2022/01/13 11:12:39;;;;;;;90.75;25.88;;;7.30;99.90;;;;;;5038522;28;20067;-79
2022/01/13 11:15:08;;;;;;;88.00;26.83;;;7.30;99.90;;;;;;5003052;28;20136;-79
2022/01/13 11:17:38;;;;;;;76.47;25.27;;;7.30;99.90;;;;;;5018066;28;20128;-79
2022/01/13 11:20:09;;;;;;;75.90;24.42;;;7.30;99.90;;;;;;5005337;28;20341;-79
2022/01/13 11:22:38;;;;;;;98.80;27.25;;;7.30;99.90;;;;;;5003150;28;20052;-79
2022/01/13 11:25:09;;;;;;;97.63;27.33;;;7.30;99.90;;;;;;5024297;28;20037;-79
2022/01/13 11:27:35;;;;;;;85.85;25.65;;;7.40;99.90;;;;;;5041126;28;20477;-79
2022/01/13 11:30:05;;;;;;;73.30;24.60;;;7.40;99.90;;;;;;5025158;28;20456;-79
2022/01/13 11:32:32;;;;;;;76.88;24.58;;;7.30;99.90;;;;;;4999420;28;20029;-79
2022/01/13 11:34:58;;;;;;;82.47;26.50;;;7.40;99.90;;;;;;5022030;28;20067;-79
2022/01/13 11:37:31;;;;;;;80.80;26.60;;;7.40;99.90;;;;;;5006583;28;20102;-79
2022/01/13 11:39:57;;;;;;;85.32;25.77;;;7.50;99.90;;;;;;5019091;28;20099;-79
2022/01/13 11:42:23;;;;;;;93.32;26.40;;;7.50;99.90;;;;;;5022994;28;20130;-79
2022/01/13 11:45:09;;;;;;;87.80;25.38;;;7.40;99.90;;;;;;5027580;28;20077;-79
2022/01/13 11:47:35;;;;;;;78.78;23.98;;;7.40;99.90;;;;;;5007469;28;20041;-79
2022/01/13 11:50:22;;;;;;;84.03;26.52;;;7.50;99.90;;;;;;5024944;28;20051;-79
2022/01/13 11:52:52;;;;;;;76.35;25.58;;;7.50;99.90;;;;;;5020684;28;20051;-79
2022/01/13 11:55:32;;;;;;;80.93;24.52;;;7.50;99.90;;;;;;5015364;28;20089;-79
2022/01/13 11:58:11;;;;;;;79.00;24.70;;;7.40;99.90;;;;;;5040054;28;20055;-79
2022/01/13 12:00:38;;;;;;;83.68;26.02;;;7.50;99.90;;;;;;5009560;28;20601;-79
2022/01/13 12:03:21;;;;;;;62.97;22.23;;;7.50;99.90;;;;;;5022172;28;20087;-79
2022/01/13 12:05:47;;;;;;;82.30;26.77;;;7.40;99.90;;;;;;5039055;28;20593;-79
2022/01/13 12:08:38;;;;;;;69.72;23.80;;;7.50;99.90;;;;;;5007713;28;20117;-79
2022/01/13 12:11:05;;;;;;;74.47;24.73;;;7.50;99.90;;;;;;5039074;28;20499;-79
2022/01/13 12:13:34;;;;;;;71.25;24.02;;;7.50;99.90;;;;;;5005558;28;20424;-79
2022/01/13 12:16:01;;;;;;;83.53;26.80;;;7.50;99.90;;;;;;5022085;28;20044;-79
2022/01/13 12:18:49;;;;;;;89.63;26.08;;;7.50;99.90;;;;;;5007926;28;20056;-79
2022/01/13 12:21:35;;;;;;;76.22;26.20;;;7.50;99.90;;;;;;5000639;28;20481;-79
2022/01/13 12:24:02;;;;;;;82.82;26.63;;;7.60;99.90;;;;;;5023621;28;20068;-79
2022/01/13 12:26:33;;;;;;;82.75;26.80;;;7.60;99.90;;;;;;5017648;28;20492;-79
2022/01/13 12:29:22;;;;;;;63.33;23.55;;;7.60;99.90;;;;;;5001984;28;20040;-79
2022/01/13 12:31:52;;;;;;;57.45;23.45;;;7.60;99.90;;;;;;5022599;28;20091;-79
2022/01/13 12:34:33;;;;;;;62.92;25.33;;;7.60;99.90;;;;;;5015703;28;20044;-79
2022/01/13 12:37:28;;;;;;;50.78;22.75;;;7.60;99.90;;;;;;4997615;28;20128;-79
2022/01/13 12:39:58;;;;;;;56.60;25.05;;;7.60;99.90;;;;;;5023210;28;20053;-79
2022/01/13 12:42:36;;;;;;;59.65;24.98;;;7.60;99.90;;;;;;5019111;28;20060;-79
2022/01/13 12:47:50;;;;;;;45.80;21.67;;;7.60;99.90;;;;;;5024640;28;20884;-79
2022/01/13 12:50:21;;;;;;;49.67;24.15;;;7.60;99.90;;;;;;5023909;28;20040;-79
2022/01/13 12:52:47;;;;;;;53.25;23.85;;;7.70;99.90;;;;;;5019809;28;20088;-79
2022/01/13 12:55:14;;;;;;;46.15;21.52;;;7.70;99.90;;;;;;5017793;28;20047;-79
2022/01/13 12:57:45;;;;;;;53.13;24.10;;;7.70;99.90;;;;;;5000290;28;20038;-79
2022/01/13 13:00:12;;;;;;;53.28;23.33;;;7.80;99.90;;;;;;5040341;28;20041;-79
2022/01/13 13:02:37;;;;;;;40.05;20.23;;;7.80;99.90;;;;;;5020175;28;20053;-79
2022/01/13 13:05:03;;;;;;;49.00;23.95;;;7.80;99.90;;;;;;5021017;28;20044;-79
2022/01/13 13:07:32;;;;;;;47.40;23.98;;;7.80;99.90;;;;;;5021030;28;20033;-79